Weather observations for the past three days for
Lewisburg / Greenbrier
Imperial (Metric)
Date Time (edt) Wind (mph) Vis. (mi.) Weather Sky Cond. Temperature (ºF) Relative Humidity Wind Chill (°F) Heat Index (°F) Pressure Precipitation (in)
Air Dwpt 6 hour altimeter (in) sea level (mb) 1 hr 3 hr 6 hr
Max. Min.
01 11:50 SW 5 10.00 Partly Cloudy SCT050 80.6 71.6 74% 85 30.21 0.0
01 10:45 S 6 10.00 Partly Cloudy SCT005 73.4 71.6 94% 30.23 0.0
01 09:45 Calm 0.50 Light Drizzle Fog OVC001 68 68 100% 30.23 0.0
01 08:45 Calm 0.75 Drizzle Fog/Mist OVC001 66.2 66.2 100% 30.24 0.0
01 08:15 SW 3 0.15 Fog OVC001 64.4 64.4 100% 30.23 0.0
01 07:55 Calm 0.15 Fog OVC001 64.4 64.4 65.7 63.1 100% 30.23 0.0
01 07:35 Calm 0.25 Fog OVC001 64.4 64.4 100% 30.22 0.0
01 07:15 SE 2 0.15 Fog OVC001 64.4 64.4 100% 30.21 0.0
01 06:55 NE 2 0.15 Fog OVC001 62.6 62.6 100% 30.2 0.0
01 06:35 NE 5 0.15 Fog OVC001 62.6 62.6 100% 30.2 0.0
01 06:15 N 2 0.15 Fog OVC001 64.4 64.4 100% 30.2 0.0
01 05:35 N 3 0.15 Fog OVC001 64.4 64.4 100% 30.19 0.0
01 05:15 NE 5 0.00 Mostly Cloudy BKN001 64.4 64.4 100% 30.19 0.0
01 04:55 N 2 0.15 Fog OVC001 64.4 64.4 100% 30.19 0.0
01 04:35 NE 5 0.15 Overcast OVC001 0 0 0% 30.19 0.0
01 04:15 N 2 0.15 Fog OVC001 64.4 64.4 100% 30.19 0.0
01 03:55 Calm 1.25 Fog/Mist BKN001 64.4 64.4 100% 30.19 0.0
01 03:35 Calm 0.15 Overcast OVC001 0 0 0% 30.19 0.0
01 03:15 Calm 0.15 Fog OVC001 64.4 64.4 100% 30.2 0.0
01 02:55 Calm 0.15 Fog OVC001 64.4 64.4 100% 30.2 0.0
01 02:35 NE 3 0.15 Fog OVC001 64.4 64.4 100% 30.2 0.0
01 02:15 Calm 0.15 Fog BKN001 64.4 64.4 100% 30.19 0.0
01 01:55 W 1 0.15 Fog BKN001 66.2 66.2 77 64.8 100% 30.2 0.0
01 01:35 Calm 0.15 Fog OVC001 64.4 64.4 100% 30.2 0.0
01 01:15 NE 2 2.50 Fog/Mist SCT001 66.2 66.2 100% 30.21 0.0
01 00:55 Calm 7.00 Fair CLR 66.2 66.2 100% 30.21 0.0
01 00:35 Calm 5.00 Fog/Mist FEW120 68 68 100% 30.21 0.0
01 00:15 Calm 6.00 Fog/Mist SCT120 68 68 100% 30.21 0.0
31 23:55 N 2 7.00 Fog/Mist SCT120 68 66.2 94% 30.21 0.0
31 23:35 Calm 9.00 Fair CLR 68 68 100% 30.22 0.0
31 23:15 Calm 8.00 Fair CLR 68 68 100% 30.22 0.0
31 22:55 NE 5 7.00 Fair CLR 68 68 100% 30.22 0.0
31 22:35 N 5 9.00 Fair CLR 68 68 100% 30.22 0.0
31 22:15 Calm 10.00 Fair CLR 69.8 68 94% 30.21 0.0
31 21:55 Calm 10.00 Fair CLR 71.6 69.8 94% 30.21 0.0
31 21:35 SE 3 10.00 Fair CLR 71.6 69.8 94% 30.2 0.0
31 21:15 S 3 10.00 Fair CLR 71.6 69.8 94% 30.19 0.0
31 20:55 Calm 7.00 Fair CLR 71.6 69.8 94% 30.19 0.0
31 20:35 Calm 10.00 Fair CLR 73.4 69.8 89% 30.18 0.0
31 20:15 S 3 10.00 Fair CLR 75.2 69.8 83% 75 30.18 0.0
31 19:35 W 3 10.00 Fair CLR 78.8 69.8 74% 81 30.18 0.0
31 19:15 W 3 10.00 Fair CLR 78.8 69.8 74% 81 30.18 0.0
31 18:51 Calm 10.00 Fair CLR 80.6 68 66% 83 30.19 0.0
31 17:51 W 5 10.00 Fair CLR 80.6 68 66% 83 30.2 0.0
31 16:51 NW 5 10.00 Fair CLR 82.4 68 62% 85 30.2 0.0
31 14:45 N 8 10.00 Overcast SCT044 BKN065 OVC075 82.4 66.2 58% 85 30.22 0.0
31 13:45 SW 7 10.00 Mostly Cloudy SCT050 BKN060 80.6 68 66% 83 30.22 0.0
31 12:45 W 6 10.00 Partly Cloudy SCT042 80.6 68 66% 83 30.23 0.0
31 11:45 SW 7 10.00 Partly Cloudy SCT060 78.8 69.8 74% 81 30.25 0.0
31 10:45 SW 7 10.00 Partly Cloudy SCT011 75.2 71.6 89% 75 30.25 0.0
31 09:45 Calm 4.00 Fog/Mist SCT002 71.6 69.8 94% 30.25 0.0
31 09:00 Calm 2.00 Fog/Mist SCT002 66.2 66.2 100% 30.25 0.0
31 08:35 Calm 10.00 A Few Clouds FEW001 64.4 64.4 100% 30.24 0.0
31 08:15 Calm 2.00 Fog/Mist SCT001 SCT036 SCT043 62.6 62.6 100% 30.24 0.0
31 07:55 Calm 0.25 Fog OVC001 62.6 62.6 65.5 60.8 100% 30.24 0.0
31 07:35 Calm 0.15 Fog OVC001 62.6 62.6 100% 30.24 0.0
31 06:55 NE 2 0.15 Fog OVC001 60.8 60.8 100% 30.22 0.0
31 06:35 N 2 0.15 Fog OVC001 60.8 60.8 100% 30.22 0.0
31 06:15 NE 3 0.50 Fog OVC001 62.6 62.6 100% 30.21 0.0
31 05:55 N 2 0.15 Fog OVC001 62.6 62.6 100% 30.22 0.0
31 05:35 N 3 0.15 Fog OVC001 62.6 62.6 100% 30.22 0.0
31 05:15 N 2 0.15 Fog OVC001 62.6 62.6 100% 30.21 0.0
31 04:55 N 2 0.15 Fog OVC001 62.6 62.6 100% 30.21 0.0
31 04:35 N 3 0.15 Fog OVC001 62.6 62.6 100% 30.21 0.0
31 04:15 Calm 0.15 Fog BKN001 62.6 62.6 100% 30.2 0.0
31 03:55 N 2 0.15 Fog VV000 62.6 62.6 100% 30.2 0.0
31 03:35 N 2 0.15 Fog VV000 62.6 62.6 100% 30.2 0.0
31 03:15 Calm 0.15 Sky Obscured VV000 0 0 0% 30.2 0.0
31 02:55 Calm 0.25 Fog VV002 64.4 64.4 100% 30.21 0.0
31 02:35 Calm 0.50 Fog VV005 64.4 64.4 100% 30.21 0.0
31 02:15 Vrbl 1 0.15 Fog VV000 64.4 64.4 100% 30.21 0.0
31 01:55 Calm 0.15 Fog BKN001 64.4 64.4 74.5 64.6 100% 30.21 0.0
31 01:35 N 2 0.15 Fog VV000 66.2 66.2 100% 30.22 0.0
31 01:15 N 3 0.15 Fog VV000 66.2 66.2 100% 30.22 0.0
31 00:55 N 3 0.15 Fog BKN001 66.2 66.2 100% 30.22 0.0
31 00:35 N 2 7.00 Fog/Mist CLR 66.2 66.2 100% 30.22 0.0
31 00:15 Calm 10.00 Fair CLR 66.2 66.2 100% 30.22 0.0
30 23:55 Calm 7.00 Fog/Mist CLR 68 68 100% 30.22 0.0
30 23:35 Calm 1.75 Fog/Mist CLR 66.2 66.2 100% 30.22 0.0
30 23:15 NE 3 10.00 Fair CLR 69.8 68 94% 30.22 0.0
30 22:55 N 3 10.00 Fair CLR 69.8 68 94% 30.22 0.0
30 22:35 N 5 10.00 Fair CLR 69.8 69.8 100% 30.22 0.0
30 22:15 NE 6 10.00 A Few Clouds FEW100 FEW120 69.8 69.8 100% 30.22 0.0
30 21:55 N 5 10.00 Partly Cloudy FEW042 SCT095 SCT120 71.6 69.8 94% 30.22 0.0
30 21:35 N 5 10.00 Partly Cloudy SCT120 71.6 69.8 94% 30.22 0.0
30 21:15 N 3 10.00 Partly Cloudy FEW047 SCT120 71.6 69.8 94% 30.22 0.0
30 20:55 N 3 10.00 Partly Cloudy FEW047 FEW050 SCT120 71.6 69.8 94% 30.21 0.0
30 20:35 N 3 10.00 Partly Cloudy SCT045 SCT060 SCT110 71.6 69.8 94% 30.2 0.0
30 20:15 Calm 10.00 A Few Clouds FEW047 73.4 69.8 89% 30.19 0.0
30 19:55 S 2 10.00 Partly Cloudy SCT047 73.4 69.8 82.9 71.4 89% 30.19 0.0
30 19:35 S 2 10.00 A Few Clouds FEW045 75.2 69.8 83% 75 30.19 0.0
30 19:15 S 2 10.00 Partly Cloudy SCT047 SCT050 75.2 71.6 89% 75 30.19 0.0
30 18:51 Calm 10.00 Fair CLR 77 71.6 83% 78 30.19 0.0
30 17:51 Calm 10.00 Fair CLR 80.6 68 66% 83 30.19 0.0
30 16:51 S 5 10.00 Partly Cloudy SCT085 75.2 69.8 83% 75 30.2 0.0
30 15:51 NW 5 10.00 Partly Cloudy SCT050 SCT070 82.4 64.4 55% 84 30.2 0.0
30 14:51 S 7 10.00 Partly Cloudy SCT037 SCT047 82.4 66.2 58% 85 30.22 0.0
30 13:45 SW 9 10.00 Partly Cloudy SCT090 80.6 66.2 62% 83 30.26 0.0
30 12:45 SW 7 10.00 Mostly Cloudy BKN048 78.8 68 70% 81 30.28 0.0
30 11:45 S 5 10.00 Mostly Cloudy SCT047 BKN055 BKN085 75.2 66.2 74% 77 30.29 0.0
30 10:45 Calm 10.00 Fair CLR 75.2 66.2 74% 77 30.25 0.0
30 09:45 Calm 10.00 Fair CLR 69.8 66.2 88% 30.29 0.0
30 08:45 Calm 1.00 Fog/Mist SCT003 62.6 62.6 100% 30.29 0.0
30 08:15 N 2 0.15 Heavy Drizzle Fog OVC001 60.8 60.8 100% 30.29 0.0
30 07:55 N 2 0.15 Fog OVC001 59 59 63.1 58.1 100% 30.29 0.0
30 07:35 E 1 0.15 Fog OVC001 59 59 100% 30.28 0.0
30 07:15 N 1 0.15 Fog OVC001 59 59 100% 30.28 0.0
30 06:55 NE 2 0.15 Fog OVC001 59 59 100% 30.28 0.0
30 06:35 NE 3 0.15 Overcast OVC001 0 0 0% 30.27 0.0
30 06:15 N 3 0.15 Fog OVC001 59 59 100% 30.27 0.0
30 05:55 NE 3 0.15 Fog OVC001 59 59 100% 30.27 0.0
30 05:35 NE 3 0.15 Fog OVC001 59 59 100% 30.26 0.0
30 05:15 N 2 0.15 Fog VV000 59 59 100% 30.27 0.0
30 04:55 N 1 0.15 Fog BKN001 59 59 100% 30.26 0.0
30 04:35 N 3 0.15 Mostly Cloudy BKN001 0 0 0% 0 0.0
30 04:15 N 5 0.15 Fog VV000 60.8 60.8 100% 30.27 0.0
30 03:55 N 3 0.50 Fog VV005 60.8 60.8 100% 30.27 0.0
30 03:35 N 5 0.15 Fog VV000 60.8 60.8 100% 30.27 0.0
30 03:15 N 3 0.15 Fog VV000 60.8 60.8 100% 30.27 0.0
30 02:55 NE 3 0.15 Fog VV000 62.6 62.6 100% 30.27 0.0
30 02:35 N 5 0.15 Fog VV000 62.6 62.6 100% 30.28 0.0
30 02:15 N 3 1.50 Fog/Mist CLR 62.6 62.6 100% 30.28 0.0
30 01:55 N 5 2.00 Fog/Mist CLR 62.6 62.6 74.3 60.6 100% 30.29 0.0
30 01:35 N 3 5.00 Fog/Mist SCT024 60.8 60.8 100% 30.29 0.0
30 01:15 NE 5 6.00 Fog/Mist SCT024 62.6 62.6 100% 30.29 0.0
30 00:55 N 5 6.00 Fog/Mist CLR 62.6 62.6 100% 30.28 0.0
30 00:35 Calm 6.00 Fog/Mist CLR 62.6 62.6 100% 30.27 0.0
30 00:15 Calm 7.00 Fog/Mist CLR 64.4 62.6 94% 30.27 0.0
29 23:55 N 3 8.00 Fair CLR 62.6 62.6 100% 30.27 0.0
29 23:35 NE 3 6.00 Fog/Mist FEW055 64.4 64.4 100% 30.27 0.0
29 23:15 NE 3 10.00 Fair CLR 64.4 64.4 100% 30.27 0.0
29 22:55 N 2 10.00 Fair CLR 64.4 64.4 100% 30.27 0.0
29 22:35 N 2 10.00 Fair CLR 66.2 64.4 94% 30.26 0.0
29 22:15 Calm 10.00 Fair CLR 66.2 64.4 94% 30.26 0.0
29 21:55 NW 2 10.00 Fair CLR 66.2 64.4 94% 30.26 0.0
29 21:35 Calm 10.00 Fair CLR 69.8 64.4 83% 30.26 0.0
29 21:15 S 3 10.00 Fair CLR 69.8 64.4 83% 30.25 0.0
29 20:55 S 5 10.00 Fair CLR 73.4 64.4 74% 30.24 0.0
29 20:35 S 5 10.00 Fair CLR 73.4 64.4 74% 30.23 0.0
29 20:15 SE 5 10.00 Fair CLR 73.4 64.4 74% 30.23 0.0
29 19:55 SE 5 10.00 Fair CLR 73.4 64.4 80.1 74.5 74% 30.23 0.0
29 19:35 SE 5 10.00 Fair CLR 75.2 64.4 69% 77 30.22 0.0
29 19:15 SE 6 10.00 Fair CLR 77 64.4 65% 79 30.22 0.0
29 18:45 S 3 10.00 Partly Cloudy SCT052 78.8 64.4 61% 81 30.23 0.0
29 17:45 S 8 10.00 Partly Cloudy SCT044 80.6 64.4 58% 82 30.23 0.0
29 16:45 S 7 10.00 Mostly Cloudy SCT040 BKN050 78.8 66.2 65% 81 30.23 0.0
29 15:45 SE 7 10.00 Mostly Cloudy BKN040 78.8 64.4 61% 81 30.26 0.0
29 14:45 S 9 10.00 Mostly Cloudy SCT033 BKN043 BKN060 78.8 64.4 61% 81 30.27 0.0
29 13:45 SE 5 10.00 Overcast SCT032 BKN050 OVC065 77 64.4 65% 79 30.29 0.0
29 12:45 SE 3 10.00 Overcast SCT028 BKN034 OVC050 75.2 64.4 69% 77 30.3 0.0
Date Time (edt) Wind (mph) Vis. (mi.) Weather Sky Cond. Air Dwpt Max. Min. Relative Humidity Wind Chill (°F) Heat Index (°F) altimeter (in) sea level (mb) 1 hr 3 hr 6 hr
6 hour
Temperature (ºF) Pressure Precipitation (in)